createdAt,value
2018-01-26T00:00:14.390Z,8.73
2018-01-26T00:02:44.486Z,8.79
2018-01-26T00:05:14.135Z,8.66
2018-01-26T00:07:42.496Z,8.68
2018-01-26T00:10:12.441Z,8.53
2018-01-26T00:12:41.582Z,8.44
2018-01-26T00:15:11.484Z,8.34
2018-01-26T00:17:40.046Z,8.42
2018-01-26T00:20:11.596Z,8.42
2018-01-26T00:22:40.102Z,8.50
2018-01-26T00:25:14.386Z,8.42
2018-01-26T00:27:42.666Z,8.38
2018-01-26T00:30:12.262Z,8.43
2018-01-26T00:32:40.824Z,8.41
2018-01-26T00:35:12.844Z,8.47
2018-01-26T00:37:41.124Z,8.61
2018-01-26T00:40:12.340Z,8.44
2018-01-26T00:42:40.611Z,8.44
2018-01-26T00:45:11.721Z,8.52
2018-01-26T00:47:40.215Z,8.52
2018-01-26T00:50:11.524Z,8.43
2018-01-26T00:52:40.016Z,8.42
2018-01-26T00:55:11.957Z,8.41
2018-01-26T00:57:40.218Z,8.42
2018-01-26T01:00:11.723Z,8.41
2018-01-26T01:02:40.376Z,8.24
2018-01-26T01:05:12.304Z,8.21
2018-01-26T01:07:40.582Z,8.08
2018-01-26T01:10:10.517Z,8.17
2018-01-26T01:12:38.778Z,8.19
2018-01-26T01:15:10.979Z,8.21
2018-01-26T01:17:39.223Z,8.34
2018-01-26T01:20:10.552Z,8.33
2018-01-26T01:22:38.851Z,8.33
2018-01-26T01:25:10.352Z,8.34
2018-01-26T01:27:38.672Z,8.27
2018-01-26T01:30:10.284Z,8.18
2018-01-26T01:32:38.572Z,8.07
2018-01-26T01:35:09.913Z,8.11
2018-01-26T01:37:38.196Z,8.15
2018-01-26T01:40:12.849Z,8.20
2018-01-26T01:42:41.144Z,8.12
2018-01-26T01:45:11.120Z,8.08
2018-01-26T01:47:39.388Z,7.93
2018-01-26T01:50:10.673Z,7.87
2018-01-26T01:52:38.956Z,7.94
2018-01-26T01:55:13.992Z,8.12
2018-01-26T01:57:42.268Z,8.06
2018-01-26T02:00:10.557Z,8.00
2018-01-26T02:02:38.824Z,8.13
2018-01-26T02:05:10.433Z,8.05
2018-01-26T02:07:38.653Z,8.11
2018-01-26T02:10:09.951Z,8.00
2018-01-26T02:12:38.561Z,7.99
2018-01-26T02:15:13.568Z,8.14
2018-01-26T02:17:41.854Z,7.99
2018-01-26T02:20:11.390Z,8.01
2018-01-26T02:22:39.668Z,8.02
2018-01-26T02:25:11.685Z,7.98
2018-01-26T02:27:39.952Z,8.02
2018-01-26T02:30:12.058Z,8.13
2018-01-26T02:32:40.508Z,8.09
2018-01-26T02:35:12.387Z,8.09
2018-01-26T02:37:40.654Z,8.14
2018-01-26T02:40:12.089Z,8.10
2018-01-26T02:42:40.378Z,8.04
2018-01-26T02:45:12.294Z,8.07
2018-01-26T02:47:41.034Z,8.10
2018-01-26T02:50:11.147Z,8.10
2018-01-26T02:52:39.455Z,8.13
2018-01-26T02:55:11.669Z,8.16
2018-01-26T02:57:40.404Z,8.09
2018-01-26T03:00:12.004Z,7.94
2018-01-26T03:02:40.314Z,8.01
2018-01-26T03:05:11.530Z,8.03
2018-01-26T03:07:40.029Z,8.14
2018-01-26T03:10:11.968Z,8.13
2018-01-26T03:12:40.258Z,8.10
2018-01-26T03:15:11.506Z,8.09
2018-01-26T03:17:39.835Z,8.03
2018-01-26T03:20:10.514Z,8.09
2018-01-26T03:22:38.791Z,8.06
2018-01-26T03:25:12.826Z,8.03
2018-01-26T03:27:41.120Z,8.09
2018-01-26T03:30:10.858Z,8.13
2018-01-26T03:32:39.117Z,8.15
2018-01-26T03:35:13.244Z,8.23
2018-01-26T03:37:41.504Z,8.29
2018-01-26T03:40:11.220Z,8.22
2018-01-26T03:42:39.495Z,8.17
2018-01-26T03:45:10.680Z,8.14
2018-01-26T03:47:39.053Z,8.15
2018-01-26T03:50:14.253Z,8.09
2018-01-26T03:52:42.542Z,8.13
2018-01-26T03:55:10.808Z,8.09
2018-01-26T03:57:39.089Z,8.16
2018-01-26T04:00:10.419Z,8.16
2018-01-26T04:02:38.708Z,8.13
2018-01-26T04:05:10.207Z,8.12
2018-01-26T04:07:38.484Z,8.18
2018-01-26T04:10:13.675Z,8.21
2018-01-26T04:12:42.014Z,8.22
2018-01-26T04:15:10.806Z,8.17
2018-01-26T04:17:39.257Z,8.08
2018-01-26T04:20:10.780Z,8.01
2018-01-26T04:22:39.079Z,8.03
2018-01-26T04:25:12.336Z,8.04
2018-01-26T04:27:40.641Z,8.07
2018-01-26T04:30:10.815Z,8.12
2018-01-26T04:32:39.099Z,8.22
2018-01-26T04:35:10.600Z,8.34
2018-01-26T04:37:38.880Z,8.38
2018-01-26T04:40:10.585Z,8.43
2018-01-26T04:42:38.875Z,8.35
2018-01-26T04:45:12.089Z,8.37
2018-01-26T04:47:40.505Z,8.29
2018-01-26T04:50:11.818Z,8.32
2018-01-26T04:52:40.093Z,8.21
2018-01-26T04:55:11.650Z,8.09
2018-01-26T04:57:40.923Z,8.05
2018-01-26T05:00:10.744Z,8.03
2018-01-26T05:02:39.004Z,7.97
2018-01-26T05:05:14.028Z,7.97
2018-01-26T05:07:42.316Z,7.88
2018-01-26T05:10:10.848Z,7.86
2018-01-26T05:12:39.117Z,7.99
2018-01-26T05:15:11.152Z,7.90
2018-01-26T05:17:39.437Z,7.93
2018-01-26T05:20:11.604Z,7.86
2018-01-26T05:22:39.889Z,7.79
2018-01-26T05:25:11.336Z,7.71
2018-01-26T05:27:39.635Z,7.71
2018-01-26T05:30:10.776Z,7.69
2018-01-26T05:32:39.064Z,7.75
2018-01-26T05:35:14.075Z,7.70
2018-01-26T05:37:42.361Z,7.66
2018-01-26T05:40:10.639Z,7.59
2018-01-26T05:42:38.955Z,7.67
2018-01-26T05:45:10.941Z,7.65
2018-01-26T05:47:39.628Z,7.65
2018-01-26T05:50:10.963Z,7.65
2018-01-26T05:52:39.380Z,7.77
2018-01-26T05:55:10.806Z,7.77
2018-01-26T05:57:39.405Z,7.69
2018-01-26T06:00:11.476Z,7.69
2018-01-26T06:02:41.111Z,7.63
2018-01-26T06:05:10.939Z,7.69
2018-01-26T06:07:39.226Z,7.68
2018-01-26T06:10:13.648Z,7.72
2018-01-26T06:12:41.952Z,7.73
2018-01-26T06:15:11.092Z,7.75
2018-01-26T06:17:39.384Z,7.76
2018-01-26T06:20:10.924Z,7.66
2018-01-26T06:22:39.218Z,7.70
2018-01-26T06:25:10.610Z,7.68
2018-01-26T06:27:38.906Z,7.73
2018-01-26T06:30:10.460Z,7.72
2018-01-26T06:32:38.940Z,7.69
2018-01-26T06:35:14.224Z,7.65
2018-01-26T06:37:42.518Z,7.72
2018-01-26T06:40:10.802Z,7.84
2018-01-26T06:42:39.056Z,7.79
2018-01-26T06:45:10.901Z,7.66
2018-01-26T06:47:39.176Z,7.77
2018-01-26T06:50:10.766Z,7.79
2018-01-26T06:52:39.108Z,7.74
2018-01-26T06:55:14.139Z,7.77
2018-01-26T06:57:43.514Z,7.77
2018-01-26T07:00:11.884Z,7.71
2018-01-26T07:02:40.916Z,7.97
2018-01-26T07:05:12.669Z,7.93
2018-01-26T07:07:41.188Z,8.12
2018-01-26T07:10:12.404Z,7.94
2018-01-26T07:12:40.762Z,7.79
2018-01-26T07:15:10.588Z,7.82
2018-01-26T07:17:39.176Z,7.80
2018-01-26T07:20:10.713Z,7.92
2018-01-26T07:22:39.012Z,7.86
2018-01-26T07:25:14.141Z,7.83
2018-01-26T07:27:43.231Z,7.81
2018-01-26T07:30:11.508Z,7.80
2018-01-26T07:32:39.985Z,7.91
2018-01-26T07:35:12.217Z,7.84
2018-01-26T07:37:40.506Z,7.92
2018-01-26T07:40:12.032Z,7.90
2018-01-26T07:42:40.331Z,8.03
2018-01-26T07:45:12.425Z,8.03
2018-01-26T07:47:40.734Z,8.02
2018-01-26T07:50:12.010Z,8.21
2018-01-26T07:52:40.761Z,8.20
2018-01-26T07:55:11.067Z,8.14
2018-01-26T07:57:39.428Z,8.17
2018-01-26T08:00:11.355Z,8.14
2018-01-26T08:02:39.625Z,8.28
2018-01-26T08:05:11.572Z,8.15
2018-01-26T08:07:39.895Z,8.24
2018-01-26T08:10:10.665Z,8.16
2018-01-26T08:12:38.928Z,8.12
2018-01-26T08:15:14.051Z,8.18
2018-01-26T08:17:42.340Z,8.25
2018-01-26T08:20:10.645Z,8.19
2018-01-26T08:22:39.300Z,8.26
2018-01-26T08:25:10.796Z,8.31
2018-01-26T08:27:39.792Z,8.30
2018-01-26T08:30:11.808Z,8.28
2018-01-26T08:32:40.646Z,8.39
2018-01-26T08:35:12.210Z,8.35
2018-01-26T08:37:40.586Z,8.42
2018-01-26T08:40:10.660Z,8.59
2018-01-26T08:42:38.948Z,8.66
2018-01-26T08:45:14.252Z,8.69
2018-01-26T08:47:42.557Z,8.73
2018-01-26T08:50:10.833Z,8.72
2018-01-26T08:52:39.131Z,8.68
2018-01-26T08:55:17.149Z,8.80
2018-01-26T08:57:45.453Z,8.72
2018-01-26T09:00:13.719Z,8.80
2018-01-26T09:02:42.012Z,8.80
2018-01-26T09:05:10.698Z,8.96
2018-01-26T09:07:39.387Z,8.94
2018-01-26T09:10:10.775Z,9.03
2018-01-26T09:12:39.103Z,9.10
2018-01-26T09:15:14.176Z,9.26
2018-01-26T09:17:42.488Z,9.43
2018-01-26T09:20:10.773Z,9.29
2018-01-26T09:22:39.252Z,9.41
2018-01-26T09:25:11.921Z,9.78
2018-01-26T09:27:40.199Z,9.95
2018-01-26T09:30:12.328Z,10.10
2018-01-26T09:32:40.853Z,9.94
2018-01-26T09:35:10.745Z,9.64
2018-01-26T09:37:39.045Z,9.62
2018-01-26T09:40:10.936Z,9.55
2018-01-26T09:42:39.901Z,9.35
2018-01-26T09:45:11.811Z,9.39
2018-01-26T09:47:40.521Z,9.14
2018-01-26T09:50:12.305Z,8.99
2018-01-26T09:52:40.583Z,9.05
2018-01-26T09:55:10.708Z,9.18
2018-01-26T09:57:38.977Z,9.34
2018-01-26T10:00:10.509Z,9.54
2018-01-26T10:02:39.093Z,9.66
2018-01-26T10:05:14.098Z,9.88
2018-01-26T10:07:42.980Z,9.75
2018-01-26T10:10:24.027Z,9.69
2018-01-26T10:12:52.476Z,9.74
2018-01-26T10:15:21.064Z,9.91
2018-01-26T10:17:49.337Z,10.48
2018-01-26T10:20:17.631Z,10.65
2018-01-26T10:22:45.908Z,11.06
2018-01-26T10:25:14.467Z,10.91
2018-01-26T10:27:42.733Z,11.36
2018-01-26T10:30:11.012Z,11.69
2018-01-26T10:32:39.537Z,11.34
2018-01-26T10:35:10.989Z,10.99
2018-01-26T10:37:39.279Z,10.87
2018-01-26T10:40:13.193Z,11.94
2018-01-26T10:42:41.486Z,12.11
2018-01-26T10:45:12.999Z,11.58
2018-01-26T10:47:41.307Z,11.47
2018-01-26T10:50:11.444Z,12.26
2018-01-26T10:52:39.917Z,12.90
2018-01-26T10:55:10.684Z,13.35
2018-01-26T10:57:39.212Z,12.92
2018-01-26T11:00:10.770Z,12.45
2018-01-26T11:02:39.071Z,12.17
2018-01-26T11:05:14.240Z,12.15
2018-01-26T11:07:42.541Z,11.73
2018-01-26T11:10:10.975Z,11.76
2018-01-26T11:12:39.247Z,11.51
2018-01-26T11:15:10.774Z,11.03
2018-01-26T11:17:39.050Z,11.38
2018-01-26T11:20:10.500Z,10.98
2018-01-26T11:22:39.081Z,11.29
2018-01-26T11:25:14.240Z,11.15
2018-01-26T11:27:42.524Z,10.98
2018-01-26T11:30:10.793Z,10.92
2018-01-26T11:32:39.833Z,11.04
2018-01-26T11:35:11.953Z,10.35
2018-01-26T11:37:40.328Z,10.06
2018-01-26T11:40:12.742Z,10.20
2018-01-26T11:42:41.712Z,10.20
2018-01-26T11:45:11.096Z,10.31
2018-01-26T11:47:39.534Z,10.57
2018-01-26T11:50:11.752Z,10.79
2018-01-26T11:52:40.044Z,10.46
2018-01-26T11:55:12.755Z,10.23
2018-01-26T11:57:41.253Z,10.23
2018-01-26T12:00:11.532Z,10.34
2018-01-26T12:02:39.837Z,10.36
2018-01-26T12:05:11.829Z,10.78
2018-01-26T12:07:40.123Z,10.53
2018-01-26T12:10:11.304Z,10.54
2018-01-26T12:12:39.603Z,10.95
2018-01-26T12:15:10.948Z,10.51
2018-01-26T12:17:39.478Z,10.54
2018-01-26T12:20:11.341Z,10.98
2018-01-26T12:22:39.654Z,10.74
2018-01-26T12:25:11.751Z,11.10
2018-01-26T12:27:40.044Z,11.03
2018-01-26T12:30:10.692Z,11.11
2018-01-26T12:32:38.972Z,10.46
2018-01-26T12:35:10.499Z,10.63
2018-01-26T12:37:38.778Z,10.76
2018-01-26T12:40:13.644Z,10.71
2018-01-26T12:42:41.937Z,10.58
2018-01-26T12:45:11.893Z,10.73
2018-01-26T12:47:40.180Z,10.72
2018-01-26T12:50:12.461Z,10.50
2018-01-26T12:52:41.108Z,10.30
2018-01-26T12:55:11.004Z,10.24
2018-01-26T12:57:39.276Z,10.32
2018-01-26T13:02:47.876Z,10.70
2018-01-26T13:05:16.760Z,11.04
2018-01-26T13:07:45.061Z,10.98
2018-01-26T13:10:13.329Z,11.02
2018-01-26T13:12:41.604Z,11.34
2018-01-26T13:15:11.048Z,11.48
2018-01-26T13:17:39.454Z,11.16
2018-01-26T13:20:10.919Z,11.16
2018-01-26T13:22:39.162Z,10.96
2018-01-26T13:25:10.908Z,11.34
2018-01-26T13:27:39.208Z,12.12
2018-01-26T13:30:10.507Z,11.49
2018-01-26T13:32:38.798Z,11.67
2018-01-26T13:35:10.076Z,12.30
2018-01-26T13:37:38.399Z,11.60
2018-01-26T13:40:13.048Z,11.41
2018-01-26T13:42:41.352Z,11.98
2018-01-26T13:45:11.302Z,11.94
2018-01-26T13:47:39.601Z,12.29
2018-01-26T13:50:11.492Z,11.47
2018-01-26T13:52:39.780Z,11.91
2018-01-26T13:55:11.048Z,12.08
2018-01-26T13:57:39.844Z,12.09
2018-01-26T14:00:11.696Z,11.64
2018-01-26T14:02:40.025Z,11.44
2018-01-26T14:05:11.976Z,11.81
2018-01-26T14:07:40.592Z,11.10
2018-01-26T14:10:12.448Z,11.61
2018-01-26T14:12:41.136Z,11.74
2018-01-26T14:15:10.749Z,11.65
2018-01-26T14:17:39.057Z,11.27
2018-01-26T14:20:11.138Z,11.51
2018-01-26T14:22:39.431Z,11.36
2018-01-26T14:25:10.774Z,11.37
2018-01-26T14:27:39.096Z,11.34
2018-01-26T14:30:14.381Z,10.92
2018-01-26T14:32:42.671Z,10.46
2018-01-26T14:35:10.969Z,10.39
2018-01-26T14:37:39.309Z,10.60
2018-01-26T14:40:10.723Z,10.51
2018-01-26T14:42:39.281Z,10.41
2018-01-26T14:45:10.912Z,10.28
2018-01-26T14:47:39.302Z,10.24
2018-01-26T14:50:10.717Z,10.18
2018-01-26T14:52:39.003Z,10.18
2018-01-26T14:55:10.469Z,10.13
2018-01-26T14:57:39.021Z,10.07
2018-01-26T15:00:12.296Z,10.00
2018-01-26T15:02:40.886Z,10.12
2018-01-26T15:05:11.119Z,10.43
2018-01-26T15:07:39.834Z,10.24
2018-01-26T15:10:10.819Z,10.14
2018-01-26T15:12:39.238Z,10.10
2018-01-26T15:15:10.732Z,10.13
2018-01-26T15:17:39.039Z,10.35
2018-01-26T15:20:12.425Z,10.42
2018-01-26T15:22:42.127Z,10.28
2018-01-26T15:25:11.348Z,10.34
2018-01-26T15:27:39.660Z,10.18
2018-01-26T15:30:11.685Z,10.03
2018-01-26T15:32:39.968Z,9.98
2018-01-26T15:35:11.142Z,9.94
2018-01-26T15:37:39.428Z,9.99
2018-01-26T15:40:10.862Z,9.92
2018-01-26T15:42:39.137Z,9.77
2018-01-26T15:45:14.342Z,9.75
2018-01-26T15:47:42.669Z,9.69
2018-01-26T15:50:10.957Z,9.66
2018-01-26T15:52:39.230Z,9.61
2018-01-26T15:55:10.542Z,9.58
2018-01-26T15:57:38.804Z,9.59
2018-01-26T16:00:10.149Z,9.55
2018-01-26T16:02:38.430Z,9.48
2018-01-26T16:05:13.360Z,9.38
2018-01-26T16:07:41.638Z,9.33
2018-01-26T16:10:10.832Z,9.18
2018-01-26T16:12:39.106Z,9.21
2018-01-26T16:15:10.598Z,9.29
2018-01-26T16:17:38.889Z,9.11
2018-01-26T16:20:10.597Z,9.18
2018-01-26T16:22:39.138Z,9.22
2018-01-26T16:25:14.189Z,9.07
2018-01-26T16:27:42.961Z,8.95
2018-01-26T16:30:11.230Z,8.85
2018-01-26T16:32:39.749Z,8.85
2018-01-26T16:35:11.625Z,8.75
2018-01-26T16:37:40.516Z,8.68
2018-01-26T16:40:10.689Z,8.66
2018-01-26T16:42:39.053Z,8.59
2018-01-26T16:45:10.349Z,8.53
2018-01-26T16:47:38.664Z,8.52
2018-01-26T16:50:10.650Z,8.50
2018-01-26T16:52:39.068Z,8.52
2018-01-26T16:55:09.742Z,8.50
2018-01-26T16:57:38.052Z,8.39
2018-01-26T17:00:09.975Z,8.40
2018-01-26T17:02:38.261Z,8.26
2018-01-26T17:05:10.439Z,8.18
2018-01-26T17:07:38.692Z,8.26
2018-01-26T17:10:09.875Z,8.36
2018-01-26T17:12:38.116Z,8.36
2018-01-26T17:15:09.569Z,8.31
2018-01-26T17:17:37.850Z,8.29
2018-01-26T17:20:09.156Z,8.33
2018-01-26T17:22:37.468Z,8.33
2018-01-26T17:25:10.804Z,8.41
2018-01-26T17:27:39.076Z,8.29
2018-01-26T17:30:11.241Z,8.25
2018-01-26T17:32:39.558Z,8.05
2018-01-26T17:35:10.794Z,7.87
2018-01-26T17:37:39.802Z,7.68
2018-01-26T17:40:10.271Z,7.64
2018-01-26T17:42:38.574Z,7.58
2018-01-26T17:45:09.952Z,7.55
2018-01-26T17:47:39.276Z,7.57
2018-01-26T17:50:10.620Z,7.99
2018-01-26T17:52:39.553Z,8.08
2018-01-26T17:55:11.232Z,8.19
2018-01-26T17:57:39.554Z,8.25
2018-01-26T18:00:11.519Z,8.22
2018-01-26T18:02:40.021Z,8.16
2018-01-26T18:05:10.442Z,8.23
2018-01-26T18:07:39.037Z,8.31
2018-01-26T18:10:10.862Z,8.39
2018-01-26T18:12:39.308Z,8.50
2018-01-26T18:15:10.833Z,8.48
2018-01-26T18:17:39.806Z,8.55
2018-01-26T18:20:11.671Z,8.38
2018-01-26T18:22:39.959Z,8.21
2018-01-26T18:25:11.451Z,8.04
2018-01-26T18:27:39.771Z,7.93
2018-01-26T18:30:11.719Z,7.85
2018-01-26T18:32:40.004Z,8.03
2018-01-26T18:35:11.216Z,7.99
2018-01-26T18:37:39.575Z,7.96
2018-01-26T18:40:11.486Z,7.87
2018-01-26T18:42:39.789Z,7.84
2018-01-26T18:45:10.405Z,7.83
2018-01-26T18:47:38.716Z,7.78
2018-01-26T18:50:10.839Z,7.72
2018-01-26T18:52:39.297Z,7.69
2018-01-26T18:55:11.317Z,7.66
2018-01-26T18:57:39.669Z,7.68
2018-01-26T19:00:11.566Z,7.86
2018-01-26T19:02:39.876Z,7.94
2018-01-26T19:05:10.960Z,8.04
2018-01-26T19:07:39.248Z,8.14
2018-01-26T19:10:10.610Z,8.13
2018-01-26T19:12:38.888Z,8.14
2018-01-26T19:15:09.870Z,8.07
2018-01-26T19:17:38.158Z,7.93
2018-01-26T19:20:12.714Z,7.90
2018-01-26T19:22:40.988Z,7.79
2018-01-26T19:25:10.189Z,7.76
2018-01-26T19:27:38.501Z,7.82
2018-01-26T19:30:10.478Z,7.84
2018-01-26T19:32:38.865Z,7.74
2018-01-26T19:35:13.617Z,7.71
2018-01-26T19:37:42.058Z,7.57
2018-01-26T19:40:10.866Z,7.53
2018-01-26T19:42:39.781Z,7.54
2018-01-26T19:45:10.308Z,7.59
2018-01-26T19:47:39.090Z,7.62
2018-01-26T19:50:10.433Z,7.57
2018-01-26T19:52:39.335Z,7.58
2018-01-26T19:55:11.185Z,7.56
2018-01-26T19:57:40.179Z,7.50
2018-01-26T20:00:11.821Z,7.53
2018-01-26T20:02:40.834Z,7.56
2018-01-26T20:05:28.811Z,7.63
2018-01-26T20:08:01.316Z,7.66
2018-01-26T20:10:30.241Z,7.73
2018-01-26T20:13:04.747Z,7.68
2018-01-26T20:15:33.753Z,7.60
2018-01-26T20:18:02.952Z,7.64
2018-01-26T20:20:31.920Z,7.58
2018-01-26T20:23:00.760Z,7.43
2018-01-26T20:25:29.929Z,7.38
2018-01-26T20:27:58.818Z,7.15
2018-01-26T20:30:27.719Z,7.18
2018-01-26T20:32:57.269Z,7.32
2018-01-26T20:35:26.202Z,7.39
2018-01-26T20:37:55.100Z,7.27
2018-01-26T20:40:23.994Z,7.28
2018-01-26T20:42:52.677Z,7.13
2018-01-26T20:45:20.964Z,7.06
2018-01-26T20:47:49.275Z,7.07
2018-01-26T20:50:17.589Z,6.94
2018-01-26T20:52:46.118Z,6.76
2018-01-26T20:55:14.409Z,6.78
2018-01-26T20:57:42.706Z,6.68
2018-01-26T21:00:11.502Z,6.65
2018-01-26T21:02:39.777Z,6.79
2018-01-26T21:05:09.773Z,6.79
2018-01-26T21:07:38.736Z,6.79
2018-01-26T21:10:11.298Z,6.70
2018-01-26T21:12:39.589Z,6.71
2018-01-26T21:15:11.534Z,6.80
2018-01-26T21:17:39.850Z,6.82
2018-01-26T21:20:10.889Z,6.77
2018-01-26T21:22:39.818Z,6.81
2018-01-26T21:25:10.009Z,6.79
2018-01-26T21:27:38.300Z,6.73
2018-01-26T21:30:13.406Z,6.59
2018-01-26T21:32:42.256Z,6.38
2018-01-26T21:35:10.549Z,6.35
2018-01-26T21:37:38.849Z,6.08
2018-01-26T21:40:10.911Z,5.99
2018-01-26T21:42:39.190Z,6.05
2018-01-26T21:45:10.733Z,6.28
2018-01-26T21:47:39.035Z,6.24
2018-01-26T21:50:10.198Z,6.18
2018-01-26T21:52:38.501Z,6.13
2018-01-26T21:55:10.654Z,6.08
2018-01-26T21:57:38.953Z,5.94
2018-01-26T22:00:10.505Z,5.94
2018-01-26T22:02:38.795Z,6.02
2018-01-26T22:05:15.983Z,5.87
2018-01-26T22:07:44.295Z,5.81
2018-01-26T22:10:12.597Z,5.79
2018-01-26T22:12:40.922Z,5.85
2018-01-26T22:15:10.060Z,5.87
2018-01-26T22:17:38.368Z,5.88
2018-01-26T22:20:09.833Z,5.93
2018-01-26T22:22:38.144Z,5.67
2018-01-26T22:25:09.605Z,5.53
2018-01-26T22:27:37.977Z,5.54
2018-01-26T22:30:13.409Z,5.51
2018-01-26T22:32:41.794Z,5.44
2018-01-26T22:35:10.085Z,5.31
2018-01-26T22:37:38.414Z,5.34
2018-01-26T22:40:09.853Z,5.30
2018-01-26T22:42:38.374Z,5.32
2018-01-26T22:45:10.070Z,5.45
2018-01-26T22:47:38.786Z,5.45
2018-01-26T22:50:10.340Z,5.44
2018-01-26T22:52:38.652Z,5.49
2018-01-26T22:55:10.849Z,5.48
2018-01-26T22:57:39.134Z,5.36
2018-01-26T23:00:10.584Z,5.32
2018-01-26T23:02:38.912Z,5.58
2018-01-26T23:05:11.561Z,5.68
2018-01-26T23:07:40.111Z,5.56
2018-01-26T23:10:09.930Z,5.51
2018-01-26T23:12:38.236Z,5.41
2018-01-26T23:15:09.813Z,5.58
2018-01-26T23:17:38.137Z,5.58
2018-01-26T23:20:09.832Z,5.53
2018-01-26T23:22:38.477Z,5.45
2018-01-26T23:25:10.214Z,5.64
2018-01-26T23:27:39.033Z,5.66
2018-01-26T23:30:10.687Z,5.67
2018-01-26T23:32:39.741Z,5.72
2018-01-26T23:35:11.054Z,5.60
2018-01-26T23:37:39.355Z,5.57
2018-01-26T23:40:10.556Z,5.68
2018-01-26T23:42:38.870Z,5.59
2018-01-26T23:45:10.985Z,5.36
2018-01-26T23:47:40.205Z,5.32
2018-01-26T23:50:10.297Z,5.25
2018-01-26T23:52:38.860Z,5.40
2018-01-26T23:55:10.924Z,5.33
2018-01-26T23:57:39.241Z,5.34
